Weather at Flamboro Centre Airport

Public forecast

Using degrees Celsius for public forecast. Weather courtesy of forecast.io.

Closest aviation weather report (METAR) to Flamboro Centre Airport

Closest report is John C. Munro Hamilton International Airport, 11.9 nm (22.0 km) S.

2024/05/20 12:00 (retrieved 1 hour ago)

CYHM 201200Z 02003KT 12SM FEW040 FEW120 BKN250 19/17 A3000 RMK SC1AC1CI7 SC TR AC TR SLP161 DENSITY ALT 1400FT

Closest aviation forecast (TAF) to Flamboro Centre Airport

Closest forecast is John C. Munro Hamilton International Airport, 11.9 nm (22.0 km) S.

2024/05/20 12:42 (retrieved 27 minutes ago)

TAF CYHM 201140Z 2012/2112 VRB03KT P6SM BKN250 FM201400 09007KT P6SM SCT050 FM201800 18007KT P6SM BKN050 FM202200 19010KT P6SM SCT050 BECMG 2101/2103 16005KT FM210600 18007KT P6SM BKN100 FM211000 21012KT P6SM BKN070 RMK NXT FCST BY 201800Z